This is the latest recevied weather packets stored in our database for station/object N7SXG. If no packets are shown the sender has not sent any weather packets the latest 10 day(s).
| Time | Temp. | Humidity | Pressure | Rain* | Wind** | Luminosity | Snow |
|---|---|---|---|---|---|---|---|
| 1777872687 | 11.11° C | 61% | 1012.6 hPa | 0 mm | - | - | - |
| 1777870867 | 11.11° C | 63% | 1012.7 hPa | 0 mm | - | - | - |
| 1777869055 | 11.11° C | 63% | 1012.9 hPa | 0 mm | - | - | - |
| 1777866357 | 10.56° C | 66% | 1013.4 hPa | 0 mm | - | - | - |
| 1777865455 | 10.56° C | 66% | 1013.5 hPa | 0 mm | - | - | - |
| 1777834855 | 17.78° C | 37% | 1016.9 hPa | 0 mm | - | - | - |
| 1777833957 | 17.78° C | 39% | 1017.2 hPa | 0 mm | - | - | - |
| 1777832163 | 17.22° C | 40% | 1017.6 hPa | 0 mm | - | - | - |
| 1777831272 | 17.22° C | 39% | 1017.8 hPa | 0 mm | - | - | - |
| 1777830360 | 16.67° C | 38% | 1017.9 hPa | 0 mm | - | - | - |
| 1777828563 | 16.11° C | 37% | 1018.3 hPa | 0 mm | - | - | - |
| 1777825868 | 16.11° C | 42% | 1018.9 hPa | 0 mm | - | - | - |
| 1777824960 | 15.56° C | 42% | 1019.2 hPa | 0 mm | - | - | - |
| 1777818654 | 12.22° C | 53% | 1019.6 hPa | 0 mm | - | - | - |
| 1777815958 | 8.33° C | 63% | 1019.8 hPa | 0 mm | - | - | - |
| 1777808755 | 2.22° C | 83% | 1019.7 hPa | 0 mm | - | - | - |
| 1777806057 | 1.11° C | 82% | 1019.1 hPa | 0 mm | - | - | - |
| 1777801555 | 0.56° C | 79% | 1018.8 hPa | 0 mm | - | - | - |
| 1777797053 | 1.11° C | 78% | 1018.6 hPa | 0 mm | - | - | - |
| 1777792563 | 1.67° C | 78% | 1018.7 hPa | 0 mm | - | - | - |
| 1777788957 | 1.11° C | 76% | 1019.3 hPa | 0 mm | - | - | - |
| 1777779957 | 2.22° C | 70% | 1019.2 hPa | 0 mm | - | - | - |
| 1777778165 | 2.78° C | 66% | 1019.4 hPa | 0 mm | - | - | - |
| 1777772753 | 5° C | 57% | 1019.2 hPa | 0 mm | - | - | - |
| 1777765558 | 8.33° C | 52% | 1018.7 hPa | 0 mm | - | - | - |
* Rain latest hour (hover to see other rain measurements)
** Current wind speed in m/s (hover to see current wind gust speed)